createdAt,value
2018-05-01T00:00:22.408Z,61.83
2018-05-01T00:02:50.654Z,66.80
2018-05-01T00:05:18.243Z,57.93
2018-05-01T00:07:45.718Z,56.00
2018-05-01T00:10:13.329Z,56.37
2018-05-01T00:12:40.821Z,56.47
2018-05-01T00:15:08.336Z,59.20
2018-05-01T00:17:35.823Z,57.53
2018-05-01T00:20:03.352Z,49.87
2018-05-01T00:22:30.844Z,56.33
2018-05-01T00:24:59.084Z,50.63
2018-05-01T00:27:26.591Z,46.70
2018-05-01T00:29:54.111Z,54.63
2018-05-01T00:32:21.646Z,49.70
2018-05-01T00:34:49.188Z,60.33
2018-05-01T00:37:16.722Z,59.37
2018-05-01T00:39:44.564Z,61.87
2018-05-01T00:42:12.040Z,64.00
2018-05-01T00:44:40.298Z,61.70
2018-05-01T00:47:08.548Z,53.30
2018-05-01T00:49:36.282Z,56.67
2018-05-01T00:52:03.775Z,50.60
2018-05-01T00:54:31.291Z,55.43
2018-05-01T00:56:59.012Z,52.73
2018-05-01T00:59:27.315Z,50.50
2018-05-01T01:01:54.784Z,49.63
2018-05-01T01:04:22.367Z,46.63
2018-05-01T01:06:49.838Z,48.30
2018-05-01T01:09:17.555Z,48.07
2018-05-01T01:11:45.020Z,44.83
2018-05-01T01:14:12.551Z,49.40
2018-05-01T01:16:40.819Z,48.03
2018-05-01T01:19:08.296Z,44.63
2018-05-01T01:21:36.594Z,46.40
2018-05-01T01:24:04.183Z,46.50
2018-05-01T01:26:31.662Z,46.83
2018-05-01T01:28:59.156Z,41.90
2018-05-01T01:31:26.625Z,43.30
2018-05-01T01:33:54.874Z,43.40
2018-05-01T01:36:21.859Z,40.63
2018-05-01T01:38:48.848Z,43.60
2018-05-01T01:41:15.843Z,41.43
2018-05-01T01:43:42.830Z,43.33
2018-05-01T01:46:20.247Z,42.00
2018-05-01T01:48:47.282Z,41.33
2018-05-01T01:51:15.031Z,42.40
2018-05-01T01:53:42.028Z,39.20
2018-05-01T01:56:09.007Z,39.20
2018-05-01T01:58:36.000Z,37.17
2018-05-01T02:01:02.999Z,35.33
2018-05-01T02:03:29.986Z,35.13
2018-05-01T02:05:56.967Z,33.97
2018-05-01T02:08:23.938Z,36.07
2018-05-01T02:10:50.927Z,42.20
2018-05-01T02:13:17.947Z,40.47
2018-05-01T02:15:44.946Z,36.77
2018-05-01T02:18:11.929Z,39.43
2018-05-01T02:20:38.916Z,36.93
2018-05-01T02:23:06.672Z,39.13
2018-05-01T02:25:34.420Z,43.17
2018-05-01T02:28:01.411Z,36.43
2018-05-01T02:30:28.466Z,33.43
2018-05-01T02:32:55.473Z,33.97
2018-05-01T02:35:23.220Z,29.10
2018-05-01T02:37:50.196Z,29.83
2018-05-01T02:40:17.947Z,27.50
2018-05-01T02:42:44.931Z,28.57
2018-05-01T02:45:11.902Z,26.07
2018-05-01T02:47:38.895Z,25.77
2018-05-01T02:50:05.891Z,26.87
2018-05-01T02:52:32.878Z,25.03
2018-05-01T02:55:00.111Z,27.10
2018-05-01T02:57:27.102Z,22.50
2018-05-01T02:59:54.104Z,22.07
2018-05-01T03:02:21.075Z,20.70
2018-05-01T03:04:48.843Z,20.77
2018-05-01T03:07:15.856Z,20.50
2018-05-01T03:09:42.882Z,17.63
2018-05-01T03:12:09.843Z,19.00
2018-05-01T03:14:36.823Z,18.97
2018-05-01T03:17:03.839Z,18.63
2018-05-01T03:19:30.839Z,18.07
2018-05-01T03:21:57.833Z,17.73
2018-05-01T03:24:24.846Z,15.17
2018-05-01T03:26:51.843Z,18.83
2018-05-01T03:29:18.857Z,19.10
2018-05-01T03:31:45.830Z,18.17
2018-05-01T03:34:12.843Z,16.87
2018-05-01T03:36:39.826Z,16.70
2018-05-01T03:39:06.867Z,16.27
2018-05-01T03:41:34.074Z,16.00
2018-05-01T03:44:01.051Z,16.43
2018-05-01T03:46:28.264Z,18.50
2018-05-01T03:48:55.879Z,17.20
2018-05-01T03:51:23.622Z,17.37
2018-05-01T03:53:50.624Z,17.13
2018-05-01T03:56:17.627Z,16.03
2018-05-01T03:58:44.603Z,15.47
2018-05-01T04:01:11.599Z,17.00
2018-05-01T04:03:38.591Z,14.60
2018-05-01T04:06:05.711Z,14.17
2018-05-01T04:08:32.738Z,14.17
2018-05-01T04:10:59.774Z,13.13
2018-05-01T04:13:26.838Z,11.77
2018-05-01T04:15:53.984Z,11.97
2018-05-01T04:18:21.013Z,11.73
2018-05-01T04:20:47.984Z,10.03
2018-05-01T04:23:14.982Z,8.87
2018-05-01T04:25:46.883Z,8.53
2018-05-01T04:28:14.002Z,9.23
2018-05-01T04:30:41.006Z,7.67
2018-05-01T04:33:08.023Z,6.27
2018-05-01T04:35:35.011Z,6.80
2018-05-01T04:38:02.003Z,6.63
2018-05-01T04:40:29.024Z,6.73
2018-05-01T04:42:56.258Z,6.53
2018-05-01T04:45:24.033Z,5.90
2018-05-01T04:47:51.012Z,5.50
2018-05-01T04:50:18.040Z,6.10
2018-05-01T04:52:45.015Z,5.23
2018-05-01T04:55:12.062Z,4.60
2018-05-01T04:57:39.254Z,4.03
2018-05-01T05:00:06.232Z,3.40
2018-05-01T05:02:33.258Z,2.70
2018-05-01T05:05:01.044Z,4.23
2018-05-01T05:07:28.259Z,2.80
2018-05-01T05:09:56.015Z,2.17
2018-05-01T05:12:23.052Z,3.40
2018-05-01T05:14:50.184Z,3.77
2018-05-01T05:17:17.408Z,3.30
2018-05-01T05:19:45.119Z,2.33
2018-05-01T05:22:12.906Z,2.80
2018-05-01T05:27:11.327Z,2.97
2018-05-01T05:29:38.319Z,2.20
2018-05-01T05:32:05.363Z,2.10
2018-05-01T05:34:32.359Z,2.00
2018-05-01T05:36:59.380Z,2.20
2018-05-01T05:39:26.367Z,2.40
2018-05-01T05:41:53.385Z,1.83
2018-05-01T05:44:21.217Z,1.90
2018-05-01T05:46:48.227Z,4.37
2018-05-01T05:49:16.109Z,2.57
2018-05-01T05:51:43.110Z,3.47
2018-05-01T05:54:10.091Z,2.23
2018-05-01T05:56:37.862Z,1.70
2018-05-01T05:59:04.842Z,3.27
2018-05-01T06:01:32.533Z,2.00
2018-05-01T06:04:01.040Z,2.73
2018-05-01T06:06:28.272Z,3.63
2018-05-01T06:08:55.315Z,2.20
2018-05-01T06:11:22.331Z,2.23
2018-05-01T06:13:57.078Z,2.10
2018-05-01T06:16:24.262Z,2.50
2018-05-01T06:18:51.470Z,1.40
2018-05-01T06:21:18.659Z,3.93
2018-05-01T06:23:45.646Z,1.83
2018-05-01T06:26:12.850Z,1.60
2018-05-01T06:28:39.865Z,2.07
2018-05-01T06:31:07.702Z,2.10
2018-05-01T06:33:35.633Z,2.00
2018-05-01T06:36:02.622Z,1.80
2018-05-01T06:38:29.763Z,1.33
2018-05-01T06:40:56.754Z,1.93
2018-05-01T06:43:23.746Z,3.10
2018-05-01T06:45:51.052Z,1.77
2018-05-01T06:48:18.891Z,2.00
2018-05-01T06:50:45.943Z,1.67
2018-05-01T06:53:12.946Z,2.27
2018-05-01T06:55:39.917Z,3.03
2018-05-01T06:58:07.364Z,1.53
2018-05-01T07:00:34.482Z,1.57
2018-05-01T07:03:01.462Z,1.77
2018-05-01T07:05:30.305Z,4.33
2018-05-01T07:07:57.343Z,1.87
2018-05-01T07:10:25.443Z,1.60
2018-05-01T07:12:52.414Z,4.27
2018-05-01T07:15:19.611Z,1.23
2018-05-01T07:17:46.633Z,2.87
2018-05-01T07:20:13.693Z,1.60
2018-05-01T07:22:40.711Z,1.70
2018-05-01T07:25:07.944Z,1.97
2018-05-01T07:27:35.068Z,2.07
2018-05-01T07:30:02.018Z,1.77
2018-05-01T07:32:29.075Z,1.77
2018-05-01T07:34:56.198Z,2.70
2018-05-01T07:37:23.250Z,1.50
2018-05-01T07:39:50.231Z,2.33
2018-05-01T07:42:17.226Z,2.20
2018-05-01T07:44:49.338Z,1.53
2018-05-01T07:47:17.119Z,2.80
2018-05-01T07:49:44.306Z,3.50
2018-05-01T07:52:11.514Z,1.50
2018-05-01T07:54:39.188Z,2.07
2018-05-01T07:57:06.163Z,2.27
2018-05-01T07:59:33.947Z,7.50
2018-05-01T08:02:00.955Z,1.47
2018-05-01T08:04:27.984Z,2.27
2018-05-01T08:06:55.009Z,2.03
2018-05-01T08:09:21.990Z,4.13
2018-05-01T08:11:50.752Z,1.23
2018-05-01T08:14:16.495Z,1.57
2018-05-01T08:16:43.555Z,2.37
2018-05-01T08:19:10.571Z,1.97
2018-05-01T08:21:37.591Z,2.10
2018-05-01T08:24:04.578Z,1.27
2018-05-01T08:26:31.695Z,3.33
2018-05-01T08:28:58.703Z,2.17
2018-05-01T08:31:26.489Z,2.00
2018-05-01T08:33:53.471Z,2.73
2018-05-01T08:36:20.456Z,3.33
2018-05-01T08:38:48.223Z,3.30
2018-05-01T08:41:15.987Z,4.73
2018-05-01T08:43:43.806Z,2.13
2018-05-01T08:46:10.824Z,1.83
2018-05-01T08:48:37.836Z,3.13
2018-05-01T08:51:04.849Z,1.90
2018-05-01T08:53:31.856Z,2.17
2018-05-01T08:55:58.912Z,3.13
2018-05-01T08:58:25.949Z,1.00
2018-05-01T09:00:53.587Z,1.10
2018-05-01T09:03:21.400Z,2.10
2018-05-01T09:05:53.663Z,2.97
2018-05-01T09:08:20.911Z,1.07
2018-05-01T09:10:47.938Z,1.70
2018-05-01T09:13:14.921Z,1.53
2018-05-01T09:15:41.951Z,1.20
2018-05-01T09:18:09.067Z,1.10
2018-05-01T09:20:35.963Z,1.80
2018-05-01T09:23:03.006Z,2.93
2018-05-01T09:25:30.223Z,1.53
2018-05-01T09:27:59.095Z,2.33
2018-05-01T09:30:26.841Z,3.33
2018-05-01T09:32:53.843Z,1.67
2018-05-01T09:35:21.693Z,1.30
2018-05-01T09:37:48.874Z,7.63
2018-05-01T09:40:15.918Z,0.77
2018-05-01T09:42:42.907Z,1.10
2018-05-01T09:45:10.206Z,0.60
2018-05-01T09:47:37.232Z,1.57
2018-05-01T09:50:04.991Z,0.50
2018-05-01T09:55:07.779Z,1.03
2018-05-01T09:57:35.579Z,1.07
2018-05-01T10:00:03.090Z,1.90
2018-05-01T10:02:31.369Z,1.63
2018-05-01T10:04:59.821Z,0.77
2018-05-01T10:07:27.324Z,1.80
2018-05-01T10:09:54.884Z,4.63
2018-05-01T10:12:23.760Z,1.43
2018-05-01T10:14:51.233Z,0.93
2018-05-01T10:17:20.409Z,2.20
2018-05-01T10:19:47.935Z,2.60
2018-05-01T10:22:15.490Z,2.30
2018-05-01T10:24:43.124Z,1.50
2018-05-01T10:27:10.611Z,2.40
2018-05-01T10:29:38.110Z,1.10
2018-05-01T10:32:06.390Z,1.47
2018-05-01T10:34:33.905Z,0.83
2018-05-01T10:37:02.228Z,0.73
2018-05-01T10:39:30.471Z,1.60
2018-05-01T10:41:57.962Z,3.17
2018-05-01T10:44:26.272Z,2.07
2018-05-01T10:46:54.510Z,1.87
2018-05-01T10:49:23.007Z,1.87
2018-05-01T10:51:50.430Z,0.97
2018-05-01T10:54:17.914Z,1.30
2018-05-01T10:56:45.413Z,2.03
2018-05-01T10:59:12.894Z,2.27
2018-05-01T11:01:40.797Z,0.53
2018-05-01T11:04:09.071Z,0.77
2018-05-01T11:06:37.315Z,2.80
2018-05-01T11:09:05.736Z,2.07
2018-05-01T11:11:33.270Z,2.13
2018-05-01T11:14:01.651Z,1.00
2018-05-01T11:16:29.905Z,0.87
2018-05-01T11:18:58.071Z,2.03
2018-05-01T11:21:25.668Z,0.83
2018-05-01T11:23:53.231Z,2.73
2018-05-01T11:26:21.528Z,2.17
2018-05-01T11:28:49.032Z,2.23
2018-05-01T11:31:16.531Z,2.87
2018-05-01T11:33:44.341Z,2.73
2018-05-01T11:36:12.246Z,1.37
2018-05-01T11:38:39.738Z,1.90
2018-05-01T11:41:07.542Z,1.73
2018-05-01T11:43:35.617Z,1.47
2018-05-01T11:46:03.119Z,1.33
2018-05-01T11:48:30.610Z,2.07
2018-05-01T11:50:58.117Z,0.37
2018-05-01T11:53:26.402Z,1.43
2018-05-01T11:55:54.731Z,1.30
2018-05-01T11:58:22.244Z,2.93
2018-05-01T12:00:49.768Z,1.50
2018-05-01T12:03:17.304Z,1.23
2018-05-01T12:05:45.163Z,2.60
2018-05-01T12:08:12.658Z,1.97
2018-05-01T12:10:40.154Z,3.17
2018-05-01T12:13:07.636Z,3.93
2018-05-01T12:15:47.432Z,1.83
2018-05-01T12:18:15.711Z,1.90
2018-05-01T12:20:43.944Z,3.97
2018-05-01T12:23:11.725Z,1.13
2018-05-01T12:25:39.263Z,1.87
2018-05-01T12:28:06.740Z,1.43
2018-05-01T12:30:34.317Z,1.57
2018-05-01T12:33:02.588Z,0.90
2018-05-01T12:35:30.090Z,1.47
2018-05-01T12:37:58.163Z,1.77
2018-05-01T12:40:25.645Z,2.03
2018-05-01T12:42:53.155Z,1.20
2018-05-01T12:45:21.403Z,1.03
2018-05-01T12:47:48.899Z,1.73
2018-05-01T12:50:17.320Z,3.33
2018-05-01T12:52:44.806Z,2.33
2018-05-01T12:55:13.125Z,1.80
2018-05-01T12:57:40.603Z,1.70
2018-05-01T13:00:08.147Z,2.37
2018-05-01T13:02:36.503Z,3.63
2018-05-01T13:05:04.659Z,1.20
2018-05-01T13:07:32.258Z,1.97
2018-05-01T13:10:00.169Z,2.03
2018-05-01T13:12:28.480Z,1.80
2018-05-01T13:14:57.773Z,2.73
2018-05-01T13:17:26.013Z,2.80
2018-05-01T13:19:54.225Z,1.90
2018-05-01T13:22:23.960Z,2.57
2018-05-01T13:24:59.592Z,3.53
2018-05-01T13:27:27.209Z,2.40
2018-05-01T13:29:55.508Z,3.60
2018-05-01T13:32:23.311Z,3.30
2018-05-01T13:34:51.220Z,3.40
2018-05-01T13:37:19.534Z,3.47
2018-05-01T13:39:47.294Z,3.97
2018-05-01T13:42:16.569Z,2.27
2018-05-01T13:44:52.639Z,3.57
2018-05-01T13:47:21.161Z,2.73
2018-05-01T13:49:49.392Z,2.63
2018-05-01T13:52:18.507Z,4.07
2018-05-01T13:54:46.599Z,4.40
2018-05-01T13:57:14.114Z,4.13
2018-05-01T13:59:42.882Z,4.37
2018-05-01T14:02:13.267Z,21.87
2018-05-01T14:04:41.496Z,4.10
2018-05-01T14:07:09.703Z,4.07
2018-05-01T14:09:37.162Z,4.13
2018-05-01T14:12:05.613Z,2.57
2018-05-01T14:14:33.194Z,3.20
2018-05-01T14:17:03.330Z,4.47
2018-05-01T14:19:30.831Z,2.80
2018-05-01T14:22:00.040Z,3.30
2018-05-01T14:24:27.517Z,4.17
2018-05-01T14:26:55.003Z,3.93
2018-05-01T14:29:23.853Z,5.13
2018-05-01T14:31:51.349Z,2.60
2018-05-01T14:39:23.355Z,5.17
2018-05-01T14:41:52.787Z,4.13
2018-05-01T14:47:00.304Z,8.23
2018-05-01T14:52:04.932Z,5.10
2018-05-01T14:57:05.599Z,4.73
2018-05-01T14:59:34.303Z,6.83
2018-05-01T15:02:02.644Z,6.30
2018-05-01T15:04:49.839Z,7.43
2018-05-01T15:09:49.787Z,4.87
2018-05-01T15:12:17.976Z,5.57
2018-05-01T15:15:00.782Z,7.90
2018-05-01T15:17:29.701Z,4.00
2018-05-01T15:19:57.886Z,4.97
2018-05-01T15:22:27.629Z,5.17
2018-05-01T15:25:06.765Z,5.87
2018-05-01T15:27:34.244Z,6.97
2018-05-01T15:32:38.187Z,7.50
2018-05-01T15:35:06.498Z,7.73
2018-05-01T15:37:35.109Z,5.73
2018-05-01T15:40:02.590Z,5.47
2018-05-01T15:42:31.827Z,8.50
2018-05-01T15:44:59.427Z,4.80
2018-05-01T15:47:27.671Z,4.80
2018-05-01T15:49:56.771Z,5.27
2018-05-01T15:52:25.016Z,5.77
2018-05-01T15:54:52.546Z,7.83
2018-05-01T15:57:20.880Z,4.90
2018-05-01T15:59:48.774Z,5.37
2018-05-01T16:02:17.097Z,5.77
2018-05-01T16:04:45.487Z,5.37
2018-05-01T16:07:12.968Z,6.47
2018-05-01T16:09:40.471Z,8.23
2018-05-01T16:12:07.984Z,7.83
2018-05-01T16:14:35.673Z,8.37
2018-05-01T16:17:03.163Z,9.73
2018-05-01T16:19:31.669Z,6.47
2018-05-01T16:21:59.829Z,6.40
2018-05-01T16:24:27.331Z,6.77
2018-05-01T16:26:54.860Z,8.57
2018-05-01T16:29:23.356Z,7.50
2018-05-01T16:31:51.112Z,8.13
2018-05-01T16:34:19.367Z,6.23
2018-05-01T16:36:47.031Z,6.60
2018-05-01T16:39:14.518Z,5.97
2018-05-01T16:41:41.999Z,4.03
2018-05-01T16:44:12.112Z,4.90
2018-05-01T16:46:40.363Z,9.50
2018-05-01T16:49:09.199Z,11.57
2018-05-01T16:54:18.965Z,5.03
2018-05-01T16:56:46.708Z,4.10
2018-05-01T16:59:14.450Z,5.67
2018-05-01T17:01:42.482Z,2.73
2018-05-01T17:04:10.246Z,4.20
2018-05-01T17:06:44.358Z,4.37
2018-05-01T17:09:13.503Z,3.17
2018-05-01T17:11:42.247Z,3.13
2018-05-01T17:14:10.517Z,4.97
2018-05-01T17:16:38.534Z,3.63
2018-05-01T17:19:06.045Z,5.93
2018-05-01T17:21:33.761Z,3.53
2018-05-01T17:26:35.358Z,5.23
2018-05-01T17:29:02.872Z,5.10
2018-05-01T17:31:30.355Z,7.67
2018-05-01T17:33:57.846Z,7.37
2018-05-01T17:36:25.519Z,5.20
2018-05-01T17:38:56.458Z,3.83
2018-05-01T17:41:24.351Z,3.93
2018-05-01T17:43:52.620Z,3.80
2018-05-01T17:46:21.119Z,4.47
2018-05-01T17:48:48.606Z,4.13
2018-05-01T17:51:16.144Z,3.63
2018-05-01T17:53:43.683Z,2.93
2018-05-01T17:56:11.920Z,4.83
2018-05-01T17:58:39.411Z,3.40
2018-05-01T18:01:08.143Z,4.90
2018-05-01T18:03:35.723Z,5.97
2018-05-01T18:06:09.111Z,5.30
2018-05-01T18:08:36.659Z,8.13
2018-05-01T18:11:04.142Z,7.67
2018-05-01T18:13:31.647Z,6.67
2018-05-01T18:15:59.228Z,7.33
2018-05-01T18:18:27.499Z,8.63
2018-05-01T18:20:55.045Z,6.70
2018-05-01T18:23:23.445Z,5.77
2018-05-01T18:25:52.468Z,6.57
2018-05-01T18:28:19.971Z,6.40
2018-05-01T18:30:47.479Z,6.57
2018-05-01T18:35:46.868Z,8.00
2018-05-01T18:38:14.419Z,5.80
2018-05-01T18:40:43.564Z,4.37
2018-05-01T18:43:11.288Z,3.37
2018-05-01T18:45:44.591Z,4.23
2018-05-01T18:48:12.166Z,6.80
2018-05-01T18:50:40.394Z,4.50
2018-05-01T18:53:07.604Z,4.87
2018-05-01T18:55:39.156Z,7.23
2018-05-01T18:58:08.008Z,4.67
2018-05-01T19:00:39.595Z,2.67
2018-05-01T19:03:07.180Z,3.83
2018-05-01T19:05:36.696Z,6.60
2018-05-01T19:08:04.339Z,5.93
2018-05-01T19:10:33.199Z,4.63
2018-05-01T19:13:01.504Z,6.13
2018-05-01T19:15:30.235Z,5.73
2018-05-01T19:17:57.759Z,5.73
2018-05-01T19:20:26.169Z,4.73
2018-05-01T19:22:53.779Z,5.70
2018-05-01T19:25:21.363Z,7.80
2018-05-01T19:27:49.978Z,5.30
2018-05-01T19:30:17.614Z,6.40
2018-05-01T19:32:46.239Z,5.60
2018-05-01T19:35:14.351Z,6.67
2018-05-01T19:37:41.934Z,5.70
2018-05-01T19:40:09.547Z,6.40
2018-05-01T19:42:37.190Z,5.80
2018-05-01T19:45:05.507Z,7.30
2018-05-01T19:47:33.124Z,6.63
2018-05-01T19:50:00.627Z,8.10
2018-05-01T19:52:28.091Z,9.97
2018-05-01T19:54:56.343Z,7.77
2018-05-01T19:57:23.827Z,8.53
2018-05-01T19:59:52.091Z,9.03
2018-05-01T20:02:20.344Z,7.97
2018-05-01T20:05:19.018Z,7.53
2018-05-01T20:07:46.685Z,9.00
2018-05-01T20:10:14.646Z,5.77
2018-05-01T20:12:42.171Z,7.47
2018-05-01T20:18:30.727Z,8.50
2018-05-01T20:20:59.603Z,9.17
2018-05-01T20:23:27.570Z,6.90
2018-05-01T20:25:55.438Z,8.00
2018-05-01T20:28:22.950Z,7.57
2018-05-01T20:30:50.455Z,7.03
2018-05-01T20:33:17.930Z,7.43
2018-05-01T20:35:46.191Z,9.47
2018-05-01T20:41:13.717Z,10.17
2018-05-01T20:43:41.967Z,8.93
2018-05-01T20:46:09.533Z,9.77
2018-05-01T20:48:37.289Z,9.83
2018-05-01T20:51:04.822Z,8.97
2018-05-01T20:53:34.824Z,55.80
2018-05-01T20:56:02.314Z,10.83
2018-05-01T20:58:29.804Z,11.30
2018-05-01T21:00:57.355Z,15.13
2018-05-01T21:03:24.838Z,13.00
2018-05-01T21:05:52.491Z,11.97
2018-05-01T21:08:19.959Z,13.20
2018-05-01T21:10:47.437Z,11.17
2018-05-01T21:13:14.918Z,14.10
2018-05-01T21:15:57.115Z,13.57
2018-05-01T21:18:24.845Z,11.10
2018-05-01T21:20:52.553Z,8.63
2018-05-01T21:23:21.973Z,8.97
2018-05-01T21:25:49.675Z,7.80
2018-05-01T21:28:17.160Z,9.63
2018-05-01T21:30:44.663Z,8.23
2018-05-01T21:33:12.123Z,7.20
2018-05-01T21:35:39.807Z,5.37
2018-05-01T21:38:07.304Z,7.17
2018-05-01T21:40:35.583Z,6.60
2018-05-01T21:43:04.130Z,6.17
2018-05-01T21:45:37.697Z,6.10
2018-05-01T21:48:05.951Z,4.37
2018-05-01T21:50:56.599Z,5.60
2018-05-01T21:53:24.082Z,5.37
2018-05-01T21:55:51.685Z,4.20
2018-05-01T21:58:19.784Z,4.03
2018-05-01T22:00:47.280Z,7.30
2018-05-01T22:03:14.788Z,8.63
2018-05-01T22:05:42.495Z,5.97
2018-05-01T22:08:09.966Z,4.80
2018-05-01T22:10:38.280Z,4.20
2018-05-01T22:13:05.742Z,6.33
2018-05-01T22:15:33.227Z,6.07
2018-05-01T22:18:00.719Z,3.80
2018-05-01T22:20:28.232Z,5.33
2018-05-01T22:22:56.069Z,6.87
2018-05-01T22:25:23.538Z,5.10
2018-05-01T22:27:51.099Z,4.20
2018-05-01T22:30:18.573Z,5.00
2018-05-01T22:32:46.039Z,5.70
2018-05-01T22:35:13.506Z,7.23
2018-05-01T22:37:41.010Z,6.67
2018-05-01T22:40:08.508Z,7.07
2018-05-01T22:42:35.983Z,5.00
2018-05-01T22:45:03.447Z,9.03
2018-05-01T22:50:13.149Z,7.77
2018-05-01T22:52:40.631Z,11.20
2018-05-01T22:55:08.099Z,13.07
2018-05-01T22:57:35.587Z,12.17
2018-05-01T23:00:03.856Z,13.77
2018-05-01T23:02:31.324Z,13.27
2018-05-01T23:04:59.554Z,14.57
2018-05-01T23:07:27.028Z,15.33
2018-05-01T23:09:54.508Z,11.10
2018-05-01T23:12:22.929Z,12.90
2018-05-01T23:14:50.438Z,13.30
2018-05-01T23:17:17.915Z,9.07
2018-05-01T23:19:46.144Z,14.57
2018-05-01T23:22:14.522Z,10.17
2018-05-01T23:24:47.214Z,14.93
2018-05-01T23:27:14.727Z,11.80
2018-05-01T23:29:42.223Z,9.47
2018-05-01T23:32:09.703Z,10.57
2018-05-01T23:34:37.175Z,9.53
2018-05-01T23:37:04.711Z,9.90
2018-05-01T23:39:32.184Z,12.37
2018-05-01T23:42:00.431Z,10.20
2018-05-01T23:44:27.891Z,9.30
2018-05-01T23:46:55.363Z,7.67
2018-05-01T23:49:22.858Z,6.60
2018-05-01T23:51:50.320Z,9.63
2018-05-01T23:54:17.785Z,9.23
2018-05-01T23:56:45.261Z,7.00
2018-05-01T23:59:12.723Z,10.20
